Terminal Aerodrome Forecast
Issued by NWS St Louis, MO

Home | Current Version | Previous Version | Text Only | Print | Product List | Glossary On
Versions: 1 2 3 4 5 6 7 8 9 10 11 12 13 14 15 16 17 18 19 20 21 22 23 24 25 26 27 28 29
000
FTUS43 KLSX 252300
TAFSTL
TAF
KSTL 252328Z 2600/2706 VRB04KT P6SM BKN250
     FM261200 14007KT P6SM OVC080
     FM261600 15008KT 2SM -SN BR SCT006 OVC015
     FM262100 24006KT 3SM -RASN BR BKN006 OVC010
     FM270000 27006KT P6SM OVC010=

USA.gov is the U.S. government's official web portal to all federal, state and local government web resources and services.